This is the latest recevied weather packets stored in our database for station/object OH2EGI-2. If no packets are shown the sender has not sent any weather packets the latest 10 day(s).
| Time | Temp. | Humidity | Pressure | Rain* | Wind** | Luminosity | Snow |
|---|---|---|---|---|---|---|---|
| 1777703809 | 20.56° C | 44% | 1003 hPa | 0 mm | - | - | - |
| 1777703509 | 20.56° C | 44% | 1003 hPa | 0 mm | - | - | - |
| 1777703209 | 20.56° C | 45% | 1003 hPa | 0 mm | - | - | - |
| 1777702909 | 20.56° C | 44% | 1003.1 hPa | 0 mm | - | - | - |
| 1777702609 | 20.56° C | 45% | 1003.1 hPa | 0 mm | - | - | - |
| 1777702309 | 20.56° C | 46% | 1003.1 hPa | 0 mm | - | - | - |
| 1777702009 | 20.56° C | 47% | 1003.1 hPa | 0 mm | - | - | - |
| 1777701709 | 20.56° C | 48% | 1003.2 hPa | 0 mm | - | - | - |
| 1777701409 | 20.56° C | 50% | 1003.1 hPa | 0 mm | - | - | - |
| 1777701109 | 19.44° C | 52% | 1003.2 hPa | 0 mm | - | - | - |
| 1777700809 | 19.44° C | 54% | 1003.2 hPa | 0 mm | - | - | - |
| 1777700509 | 18.89° C | 57% | 1003.2 hPa | 0 mm | - | - | - |
| 1777700209 | 17.78° C | 61% | 1003.3 hPa | 0 mm | - | - | - |
| 1777699909 | 16.11° C | 66% | 1003.3 hPa | 0 mm | - | - | - |
| 1777699609 | 15° C | 71% | 1003.2 hPa | 0 mm | - | - | - |
| 1777699309 | 12.22° C | 74% | 1003.3 hPa | 0 mm | - | - | - |
| 1777699009 | 11.11° C | 75% | 1003.4 hPa | 0 mm | - | - | - |
| 1777698709 | 10° C | 76% | 1003.4 hPa | 0 mm | - | - | - |
| 1777698409 | 9.44° C | 76% | 1003.5 hPa | 0 mm | - | - | - |
| 1777698109 | 8.89° C | 76% | 1003.4 hPa | 0 mm | - | - | - |
| 1777697809 | 7.78° C | 76% | 1003.4 hPa | 0 mm | - | - | - |
| 1777697509 | 7.22° C | 76% | 1003.5 hPa | 0 mm | - | - | - |
| 1777697209 | 7.22° C | 76% | 1003.4 hPa | 0 mm | - | - | - |
| 1777696909 | 6.67° C | 76% | 1003.5 hPa | 0 mm | - | - | - |
| 1777696609 | 6.11° C | 76% | 1003.5 hPa | 0 mm | - | - | - |
* Rain latest hour (hover to see other rain measurements)
** Current wind speed in m/s (hover to see current wind gust speed)